sensor_id;sensor_type;location;lat;lon;timestamp;pressure;altitude;pressure_sealevel;temperature
76898;BMP180;65856;52.178;21.176;2023-08-08T00:01:03;99650.00;;;17.20
76898;BMP180;65856;52.178;21.176;2023-08-08T00:03:29;99648.20;;;17.20
76898;BMP180;65856;52.178;21.176;2023-08-08T00:05:54;99651.80;;;17.20
76898;BMP180;65856;52.178;21.176;2023-08-08T00:08:20;99657.40;;;17.20
76898;BMP180;65856;52.178;21.176;2023-08-08T00:10:45;99658.20;;;17.20
76898;BMP180;65856;52.178;21.176;2023-08-08T00:13:10;99660.00;;;17.20
76898;BMP180;65856;52.178;21.176;2023-08-08T00:15:36;99664.20;;;17.10
76898;BMP180;65856;52.178;21.176;2023-08-08T00:18:02;99660.40;;;17.10
76898;BMP180;65856;52.178;21.176;2023-08-08T00:20:28;99662.60;;;17.10
76898;BMP180;65856;52.178;21.176;2023-08-08T00:22:53;99666.00;;;17.00
76898;BMP180;65856;52.178;21.176;2023-08-08T00:25:19;99669.20;;;17.00
76898;BMP180;65856;52.178;21.176;2023-08-08T00:27:44;99675.80;;;16.98
76898;BMP180;65856;52.178;21.176;2023-08-08T00:30:11;99675.20;;;16.90
76898;BMP180;65856;52.178;21.176;2023-08-08T00:32:38;99676.40;;;16.90
76898;BMP180;65856;52.178;21.176;2023-08-08T00:35:05;99678.40;;;16.80
76898;BMP180;65856;52.178;21.176;2023-08-08T00:37:30;99685.60;;;16.80
76898;BMP180;65856;52.178;21.176;2023-08-08T00:39:56;99686.20;;;16.80
76898;BMP180;65856;52.178;21.176;2023-08-08T00:42:22;99690.80;;;16.80
76898;BMP180;65856;52.178;21.176;2023-08-08T00:44:48;99693.60;;;16.72
76898;BMP180;65856;52.178;21.176;2023-08-08T00:47:13;99698.60;;;16.70
76898;BMP180;65856;52.178;21.176;2023-08-08T00:49:39;99705.00;;;16.70
76898;BMP180;65856;52.178;21.176;2023-08-08T00:52:06;99707.40;;;16.70
76898;BMP180;65856;52.178;21.176;2023-08-08T00:54:33;99705.40;;;16.70
76898;BMP180;65856;52.178;21.176;2023-08-08T00:56:58;99709.40;;;16.70
76898;BMP180;65856;52.178;21.176;2023-08-08T00:59:24;99708.20;;;16.60
76898;BMP180;65856;52.178;21.176;2023-08-08T01:01:49;99714.00;;;16.60
76898;BMP180;65856;52.178;21.176;2023-08-08T01:04:16;99710.60;;;16.60
76898;BMP180;65856;52.178;21.176;2023-08-08T01:07:22;99715.00;;;16.60
76898;BMP180;65856;52.178;21.176;2023-08-08T01:09:59;99714.00;;;16.50
76898;BMP180;65856;52.178;21.176;2023-08-08T01:12:36;99717.60;;;16.50
76898;BMP180;65856;52.178;21.176;2023-08-08T01:15:07;99716.00;;;16.50
76898;BMP180;65856;52.178;21.176;2023-08-08T01:17:35;99720.80;;;16.50
76898;BMP180;65856;52.178;21.176;2023-08-08T01:20:04;99719.20;;;16.54
76898;BMP180;65856;52.178;21.176;2023-08-08T01:23:33;99725.60;;;16.50
76898;BMP180;65856;52.178;21.176;2023-08-08T01:25:39;99730.20;;;16.48
76898;BMP180;65856;52.178;21.176;2023-08-08T01:28:07;99737.80;;;16.40
76898;BMP180;65856;52.178;21.176;2023-08-08T01:30:33;99740.20;;;16.40
76898;BMP180;65856;52.178;21.176;2023-08-08T01:32:59;99745.60;;;16.40
76898;BMP180;65856;52.178;21.176;2023-08-08T01:35:29;99748.00;;;16.40
76898;BMP180;65856;52.178;21.176;2023-08-08T01:38:06;99752.20;;;16.40
76898;BMP180;65856;52.178;21.176;2023-08-08T01:40:36;99754.60;;;16.30
76898;BMP180;65856;52.178;21.176;2023-08-08T01:43:03;99758.20;;;16.22
76898;BMP180;65856;52.178;21.176;2023-08-08T01:45:29;99758.80;;;16.20
76898;BMP180;65856;52.178;21.176;2023-08-08T01:47:55;99761.40;;;16.20
76898;BMP180;65856;52.178;21.176;2023-08-08T01:50:21;99763.60;;;16.20
76898;BMP180;65856;52.178;21.176;2023-08-08T01:52:47;99766.20;;;16.18
76898;BMP180;65856;52.178;21.176;2023-08-08T01:55:13;99764.60;;;16.20
76898;BMP180;65856;52.178;21.176;2023-08-08T01:57:38;99767.00;;;16.20
76898;BMP180;65856;52.178;21.176;2023-08-08T02:00:06;99768.40;;;16.20
76898;BMP180;65856;52.178;21.176;2023-08-08T02:02:33;99769.40;;;16.18
76898;BMP180;65856;52.178;21.176;2023-08-08T02:05:01;99773.20;;;16.18
76898;BMP180;65856;52.178;21.176;2023-08-08T02:07:27;99772.40;;;16.18
76898;BMP180;65856;52.178;21.176;2023-08-08T02:09:53;99780.00;;;16.20
76898;BMP180;65856;52.178;21.176;2023-08-08T02:12:18;99782.80;;;16.20
76898;BMP180;65856;52.178;21.176;2023-08-08T02:14:44;99784.80;;;16.20
76898;BMP180;65856;52.178;21.176;2023-08-08T02:17:09;99785.00;;;16.10
76898;BMP180;65856;52.178;21.176;2023-08-08T02:19:35;99792.20;;;16.12
76898;BMP180;65856;52.178;21.176;2023-08-08T02:22:01;99792.80;;;16.10
76898;BMP180;65856;52.178;21.176;2023-08-08T02:24:26;99798.00;;;16.10
76898;BMP180;65856;52.178;21.176;2023-08-08T02:26:52;99801.00;;;16.10
76898;BMP180;65856;52.178;21.176;2023-08-08T02:29:17;99796.40;;;16.00
76898;BMP180;65856;52.178;21.176;2023-08-08T02:31:43;99797.20;;;16.00
76898;BMP180;65856;52.178;21.176;2023-08-08T02:34:08;99803.40;;;15.90
76898;BMP180;65856;52.178;21.176;2023-08-08T02:36:34;99804.80;;;15.90
76898;BMP180;65856;52.178;21.176;2023-08-08T02:38:59;99811.60;;;15.90
76898;BMP180;65856;52.178;21.176;2023-08-08T02:41:25;99816.80;;;15.80
76898;BMP180;65856;52.178;21.176;2023-08-08T02:43:50;99822.80;;;15.80
76898;BMP180;65856;52.178;21.176;2023-08-08T02:46:16;99819.40;;;15.80
76898;BMP180;65856;52.178;21.176;2023-08-08T02:48:41;99827.20;;;15.80
76898;BMP180;65856;52.178;21.176;2023-08-08T02:51:07;99827.60;;;15.88
76898;BMP180;65856;52.178;21.176;2023-08-08T02:53:32;99828.00;;;15.90
76898;BMP180;65856;52.178;21.176;2023-08-08T02:55:58;99831.60;;;15.90
76898;BMP180;65856;52.178;21.176;2023-08-08T02:58:23;99840.80;;;15.80
76898;BMP180;65856;52.178;21.176;2023-08-08T03:00:49;99845.00;;;15.82
76898;BMP180;65856;52.178;21.176;2023-08-08T03:03:14;99840.60;;;15.80
76898;BMP180;65856;52.178;21.176;2023-08-08T03:05:40;99845.80;;;15.80
76898;BMP180;65856;52.178;21.176;2023-08-08T03:08:06;99856.40;;;15.80
76898;BMP180;65856;52.178;21.176;2023-08-08T03:10:31;99851.20;;;15.80
76898;BMP180;65856;52.178;21.176;2023-08-08T03:12:57;99855.40;;;15.70
76898;BMP180;65856;52.178;21.176;2023-08-08T03:15:23;99855.20;;;15.70
76898;BMP180;65856;52.178;21.176;2023-08-08T03:17:48;99857.00;;;15.60
76898;BMP180;65856;52.178;21.176;2023-08-08T03:20:14;99864.80;;;15.50
76898;BMP180;65856;52.178;21.176;2023-08-08T03:22:40;99858.20;;;15.50
76898;BMP180;65856;52.178;21.176;2023-08-08T03:25:06;99867.80;;;15.46
76898;BMP180;65856;52.178;21.176;2023-08-08T03:27:32;99869.40;;;15.40
76898;BMP180;65856;52.178;21.176;2023-08-08T03:29:57;99876.20;;;15.40
76898;BMP180;65856;52.178;21.176;2023-08-08T03:32:23;99869.20;;;15.40
76898;BMP180;65856;52.178;21.176;2023-08-08T03:34:49;99874.60;;;15.40
76898;BMP180;65856;52.178;21.176;2023-08-08T03:37:14;99879.80;;;15.40
76898;BMP180;65856;52.178;21.176;2023-08-08T03:39:40;99874.00;;;15.40
76898;BMP180;65856;52.178;21.176;2023-08-08T03:42:06;99880.00;;;15.40
76898;BMP180;65856;52.178;21.176;2023-08-08T03:44:32;99893.80;;;15.50
76898;BMP180;65856;52.178;21.176;2023-08-08T03:46:57;99889.60;;;15.40
76898;BMP180;65856;52.178;21.176;2023-08-08T03:49:23;99898.20;;;15.40
76898;BMP180;65856;52.178;21.176;2023-08-08T03:51:48;99897.40;;;15.36
76898;BMP180;65856;52.178;21.176;2023-08-08T03:54:14;99900.00;;;15.34
76898;BMP180;65856;52.178;21.176;2023-08-08T03:56:40;99905.40;;;15.30
76898;BMP180;65856;52.178;21.176;2023-08-08T03:59:06;99913.00;;;15.30
76898;BMP180;65856;52.178;21.176;2023-08-08T04:01:32;99916.20;;;15.30
76898;BMP180;65856;52.178;21.176;2023-08-08T04:03:58;99915.60;;;15.30
76898;BMP180;65856;52.178;21.176;2023-08-08T04:06:23;99920.40;;;15.30
76898;BMP180;65856;52.178;21.176;2023-08-08T04:08:49;99920.60;;;15.30
76898;BMP180;65856;52.178;21.176;2023-08-08T04:11:16;99925.60;;;15.30
76898;BMP180;65856;52.178;21.176;2023-08-08T04:13:42;99933.40;;;15.40
76898;BMP180;65856;52.178;21.176;2023-08-08T04:16:07;99932.60;;;15.64
76898;BMP180;65856;52.178;21.176;2023-08-08T04:18:33;99938.80;;;15.90
76898;BMP180;65856;52.178;21.176;2023-08-08T04:20:59;99937.80;;;15.94
76898;BMP180;65856;52.178;21.176;2023-08-08T04:23:25;99940.80;;;15.90
76898;BMP180;65856;52.178;21.176;2023-08-08T04:25:54;99944.20;;;15.90
76898;BMP180;65856;52.178;21.176;2023-08-08T04:28:19;99948.80;;;15.80
76898;BMP180;65856;52.178;21.176;2023-08-08T04:30:45;99951.80;;;15.78
76898;BMP180;65856;52.178;21.176;2023-08-08T04:33:10;99955.60;;;15.80
76898;BMP180;65856;52.178;21.176;2023-08-08T04:35:36;99957.20;;;15.80
76898;BMP180;65856;52.178;21.176;2023-08-08T04:38:01;99961.60;;;15.80
76898;BMP180;65856;52.178;21.176;2023-08-08T04:40:27;99960.00;;;15.80
76898;BMP180;65856;52.178;21.176;2023-08-08T04:42:52;99958.20;;;15.90
76898;BMP180;65856;52.178;21.176;2023-08-08T04:45:18;99965.00;;;16.00
76898;BMP180;65856;52.178;21.176;2023-08-08T04:47:44;99964.00;;;16.00
76898;BMP180;65856;52.178;21.176;2023-08-08T04:50:10;99966.00;;;16.10
76898;BMP180;65856;52.178;21.176;2023-08-08T04:52:35;99962.80;;;16.18
76898;BMP180;65856;52.178;21.176;2023-08-08T04:55:01;99963.80;;;16.20
76898;BMP180;65856;52.178;21.176;2023-08-08T04:57:27;99965.80;;;16.20
76898;BMP180;65856;52.178;21.176;2023-08-08T04:59:52;99972.40;;;16.30
76898;BMP180;65856;52.178;21.176;2023-08-08T05:02:18;99978.20;;;16.40
76898;BMP180;65856;52.178;21.176;2023-08-08T05:04:43;99983.20;;;16.46
76898;BMP180;65856;52.178;21.176;2023-08-08T05:07:09;99983.80;;;16.50
76898;BMP180;65856;52.178;21.176;2023-08-08T05:09:34;99986.20;;;16.60
76898;BMP180;65856;52.178;21.176;2023-08-08T05:12:01;99994.00;;;16.70
76898;BMP180;65856;52.178;21.176;2023-08-08T05:14:27;99994.60;;;16.70
76898;BMP180;65856;52.178;21.176;2023-08-08T05:16:52;99994.20;;;16.80
76898;BMP180;65856;52.178;21.176;2023-08-08T05:19:18;99992.20;;;16.90
76898;BMP180;65856;52.178;21.176;2023-08-08T05:21:43;99992.80;;;16.90
76898;BMP180;65856;52.178;21.176;2023-08-08T05:24:09;99996.00;;;16.90
76898;BMP180;65856;52.178;21.176;2023-08-08T05:26:34;100001.00;;;16.90
76898;BMP180;65856;52.178;21.176;2023-08-08T05:29:00;100007.00;;;16.84
76898;BMP180;65856;52.178;21.176;2023-08-08T05:31:25;99999.80;;;16.90
76898;BMP180;65856;52.178;21.176;2023-08-08T05:33:51;100004.80;;;16.80
76898;BMP180;65856;52.178;21.176;2023-08-08T05:36:17;100007.20;;;16.80
76898;BMP180;65856;52.178;21.176;2023-08-08T05:38:42;100003.00;;;16.80
76898;BMP180;65856;52.178;21.176;2023-08-08T05:41:08;100013.40;;;16.84
76898;BMP180;65856;52.178;21.176;2023-08-08T05:43:33;100014.80;;;16.90
76898;BMP180;65856;52.178;21.176;2023-08-08T05:45:59;100017.40;;;17.00
76898;BMP180;65856;52.178;21.176;2023-08-08T05:48:25;100015.40;;;17.08
76898;BMP180;65856;52.178;21.176;2023-08-08T05:50:50;100017.00;;;17.10
76898;BMP180;65856;52.178;21.176;2023-08-08T05:53:16;100016.60;;;17.20
76898;BMP180;65856;52.178;21.176;2023-08-08T05:55:41;100018.40;;;17.20
76898;BMP180;65856;52.178;21.176;2023-08-08T05:58:08;100027.20;;;17.20
76898;BMP180;65856;52.178;21.176;2023-08-08T06:00:34;100031.00;;;17.20
76898;BMP180;65856;52.178;21.176;2023-08-08T06:03:00;100029.20;;;17.30
76898;BMP180;65856;52.178;21.176;2023-08-08T06:05:26;100032.80;;;17.40
76898;BMP180;65856;52.178;21.176;2023-08-08T06:07:52;100028.60;;;17.48
76898;BMP180;65856;52.178;21.176;2023-08-08T06:10:18;100035.80;;;17.50
76898;BMP180;65856;52.178;21.176;2023-08-08T06:12:43;100038.00;;;17.60
76898;BMP180;65856;52.178;21.176;2023-08-08T06:15:09;100037.20;;;17.62
76898;BMP180;65856;52.178;21.176;2023-08-08T06:17:35;100044.80;;;17.68
76898;BMP180;65856;52.178;21.176;2023-08-08T06:20:00;100040.00;;;17.70
76898;BMP180;65856;52.178;21.176;2023-08-08T06:22:26;100047.40;;;17.70
76898;BMP180;65856;52.178;21.176;2023-08-08T06:24:51;100046.00;;;17.80
76898;BMP180;65856;52.178;21.176;2023-08-08T06:27:17;100044.60;;;17.80
76898;BMP180;65856;52.178;21.176;2023-08-08T06:29:42;100046.60;;;17.80
76898;BMP180;65856;52.178;21.176;2023-08-08T06:32:08;100051.00;;;17.88
76898;BMP180;65856;52.178;21.176;2023-08-08T06:34:33;100046.20;;;17.86
76898;BMP180;65856;52.178;21.176;2023-08-08T06:36:59;100056.80;;;17.90
76898;BMP180;65856;52.178;21.176;2023-08-08T06:39:25;100057.80;;;18.00
76898;BMP180;65856;52.178;21.176;2023-08-08T06:41:51;100061.40;;;18.00
76898;BMP180;65856;52.178;21.176;2023-08-08T06:44:16;100060.60;;;18.10
76898;BMP180;65856;52.178;21.176;2023-08-08T06:46:42;100063.40;;;18.16
76898;BMP180;65856;52.178;21.176;2023-08-08T06:49:07;100064.20;;;18.20
76898;BMP180;65856;52.178;21.176;2023-08-08T06:51:34;100063.40;;;18.20
76898;BMP180;65856;52.178;21.176;2023-08-08T06:54:00;100071.60;;;18.20
76898;BMP180;65856;52.178;21.176;2023-08-08T06:56:26;100065.20;;;18.20
76898;BMP180;65856;52.178;21.176;2023-08-08T06:58:52;100069.20;;;18.20
76898;BMP180;65856;52.178;21.176;2023-08-08T07:01:18;100074.20;;;18.10
76898;BMP180;65856;52.178;21.176;2023-08-08T07:03:44;100074.40;;;18.08
76898;BMP180;65856;52.178;21.176;2023-08-08T07:06:10;100070.40;;;18.10
76898;BMP180;65856;52.178;21.176;2023-08-08T07:08:36;100074.40;;;18.10
76898;BMP180;65856;52.178;21.176;2023-08-08T07:11:05;100074.80;;;18.02
76898;BMP180;65856;52.178;21.176;2023-08-08T07:13:33;100072.60;;;18.10
76898;BMP180;65856;52.178;21.176;2023-08-08T07:15:59;100067.00;;;18.30
76898;BMP180;65856;52.178;21.176;2023-08-08T07:18:25;100073.60;;;18.40
76898;BMP180;65856;52.178;21.176;2023-08-08T07:20:51;100073.60;;;18.50
76898;BMP180;65856;52.178;21.176;2023-08-08T07:23:16;100079.00;;;18.50
76898;BMP180;65856;52.178;21.176;2023-08-08T07:25:42;100080.00;;;18.40
76898;BMP180;65856;52.178;21.176;2023-08-08T07:28:08;100071.20;;;18.40
76898;BMP180;65856;52.178;21.176;2023-08-08T07:30:35;100068.60;;;18.46
76898;BMP180;65856;52.178;21.176;2023-08-08T07:33:00;100074.40;;;18.64
76898;BMP180;65856;52.178;21.176;2023-08-08T07:35:26;100073.80;;;18.80
76898;BMP180;65856;52.178;21.176;2023-08-08T07:37:52;100077.20;;;18.90
76898;BMP180;65856;52.178;21.176;2023-08-08T07:40:20;100083.40;;;19.00
76898;BMP180;65856;52.178;21.176;2023-08-08T07:42:47;100082.20;;;19.08
76898;BMP180;65856;52.178;21.176;2023-08-08T07:45:14;100075.60;;;19.10
76898;BMP180;65856;52.178;21.176;2023-08-08T07:47:40;100077.60;;;19.12
76898;BMP180;65856;52.178;21.176;2023-08-08T07:50:08;100072.80;;;19.32
76898;BMP180;65856;52.178;21.176;2023-08-08T07:52:35;100069.40;;;19.60
76898;BMP180;65856;52.178;21.176;2023-08-08T07:55:02;100067.00;;;19.92
76898;BMP180;65856;52.178;21.176;2023-08-08T07:57:28;100071.40;;;20.30
76898;BMP180;65856;52.178;21.176;2023-08-08T07:59:56;100069.00;;;20.40
76898;BMP180;65856;52.178;21.176;2023-08-08T08:02:21;100070.60;;;20.38
76898;BMP180;65856;52.178;21.176;2023-08-08T08:04:47;100074.60;;;20.40
76898;BMP180;65856;52.178;21.176;2023-08-08T08:07:13;100077.00;;;20.50
76898;BMP180;65856;52.178;21.176;2023-08-08T08:09:38;100084.00;;;20.70
76898;BMP180;65856;52.178;21.176;2023-08-08T08:12:08;100083.80;;;20.88
76898;BMP180;65856;52.178;21.176;2023-08-08T08:14:33;100078.20;;;21.00
76898;BMP180;65856;52.178;21.176;2023-08-08T08:16:59;100083.60;;;21.00
76898;BMP180;65856;52.178;21.176;2023-08-08T08:19:25;100087.80;;;21.10
76898;BMP180;65856;52.178;21.176;2023-08-08T08:21:50;100087.40;;;21.24
76898;BMP180;65856;52.178;21.176;2023-08-08T08:24:16;100084.80;;;21.30
76898;BMP180;65856;52.178;21.176;2023-08-08T08:26:41;100081.20;;;21.30
76898;BMP180;65856;52.178;21.176;2023-08-08T08:29:06;100082.80;;;21.10
76898;BMP180;65856;52.178;21.176;2023-08-08T08:31:32;100080.20;;;21.12
76898;BMP180;65856;52.178;21.176;2023-08-08T08:33:58;100082.80;;;21.32
76898;BMP180;65856;52.178;21.176;2023-08-08T08:36:23;100081.60;;;21.60
76898;BMP180;65856;52.178;21.176;2023-08-08T08:38:51;100084.60;;;21.70
76898;BMP180;65856;52.178;21.176;2023-08-08T08:41:19;100090.80;;;21.70
76898;BMP180;65856;52.178;21.176;2023-08-08T08:43:48;100096.40;;;21.90
76898;BMP180;65856;52.178;21.176;2023-08-08T08:46:20;100094.80;;;21.94
76898;BMP180;65856;52.178;21.176;2023-08-08T08:48:49;100097.20;;;21.90
76898;BMP180;65856;52.178;21.176;2023-08-08T08:51:15;100100.20;;;21.90
76898;BMP180;65856;52.178;21.176;2023-08-08T08:53:42;100099.40;;;21.76
76898;BMP180;65856;52.178;21.176;2023-08-08T08:56:14;100100.60;;;21.60
76898;BMP180;65856;52.178;21.176;2023-08-08T08:58:40;100097.00;;;21.66
76898;BMP180;65856;52.178;21.176;2023-08-08T09:01:07;100093.80;;;21.70
76898;BMP180;65856;52.178;21.176;2023-08-08T09:03:35;100094.80;;;21.88
76898;BMP180;65856;52.178;21.176;2023-08-08T09:06:04;100091.80;;;22.10
76898;BMP180;65856;52.178;21.176;2023-08-08T09:08:30;100092.40;;;22.20
76898;BMP180;65856;52.178;21.176;2023-08-08T09:10:56;100101.60;;;22.20
76898;BMP180;65856;52.178;21.176;2023-08-08T09:13:23;100100.40;;;22.10
76898;BMP180;65856;52.178;21.176;2023-08-08T09:15:52;100104.80;;;22.00
76898;BMP180;65856;52.178;21.176;2023-08-08T09:18:18;100109.60;;;21.80
76898;BMP180;65856;52.178;21.176;2023-08-08T09:20:48;100109.20;;;21.60
76898;BMP180;65856;52.178;21.176;2023-08-08T09:23:14;100114.40;;;21.40
76898;BMP180;65856;52.178;21.176;2023-08-08T09:25:40;100115.20;;;21.40
76898;BMP180;65856;52.178;21.176;2023-08-08T09:28:06;100115.20;;;21.20
76898;BMP180;65856;52.178;21.176;2023-08-08T09:30:32;100113.60;;;21.10
76898;BMP180;65856;52.178;21.176;2023-08-08T09:33:00;100109.60;;;21.30
76898;BMP180;65856;52.178;21.176;2023-08-08T09:35:29;100113.60;;;21.50
76898;BMP180;65856;52.178;21.176;2023-08-08T09:37:55;100111.00;;;21.50
76898;BMP180;65856;52.178;21.176;2023-08-08T09:40:22;100116.80;;;21.56
76898;BMP180;65856;52.178;21.176;2023-08-08T09:42:51;100122.60;;;21.60
76898;BMP180;65856;52.178;21.176;2023-08-08T09:45:19;100126.00;;;21.50
76898;BMP180;65856;52.178;21.176;2023-08-08T09:47:45;100125.80;;;21.40
76898;BMP180;65856;52.178;21.176;2023-08-08T09:50:11;100125.80;;;21.20
76898;BMP180;65856;52.178;21.176;2023-08-08T09:52:38;100122.00;;;21.10
76898;BMP180;65856;52.178;21.176;2023-08-08T09:55:07;100117.80;;;21.36
76898;BMP180;65856;52.178;21.176;2023-08-08T09:57:33;100110.00;;;21.60
76898;BMP180;65856;52.178;21.176;2023-08-08T10:00:01;100119.00;;;21.70
76898;BMP180;65856;52.178;21.176;2023-08-08T10:02:30;100119.00;;;21.78
76898;BMP180;65856;52.178;21.176;2023-08-08T10:04:57;100125.20;;;21.80
76898;BMP180;65856;52.178;21.176;2023-08-08T10:07:23;100126.80;;;21.90
76898;BMP180;65856;52.178;21.176;2023-08-08T10:09:49;100130.40;;;21.80
76898;BMP180;65856;52.178;21.176;2023-08-08T10:12:15;100127.20;;;21.70
76898;BMP180;65856;52.178;21.176;2023-08-08T10:14:44;100130.20;;;21.50
76898;BMP180;65856;52.178;21.176;2023-08-08T10:17:15;100127.60;;;21.50
76898;BMP180;65856;52.178;21.176;2023-08-08T10:19:51;100120.40;;;21.60
76898;BMP180;65856;52.178;21.176;2023-08-08T10:22:22;100113.80;;;21.80
76898;BMP180;65856;52.178;21.176;2023-08-08T10:24:54;100124.80;;;22.04
76898;BMP180;65856;52.178;21.176;2023-08-08T10:27:36;100109.20;;;22.10
76898;BMP180;65856;52.178;21.176;2023-08-08T10:30:07;100117.00;;;22.18
76898;BMP180;65856;52.178;21.176;2023-08-08T10:32:44;100120.00;;;22.16
76898;BMP180;65856;52.178;21.176;2023-08-08T10:35:12;100125.60;;;22.06
76898;BMP180;65856;52.178;21.176;2023-08-08T10:37:39;100124.40;;;21.90
76898;BMP180;65856;52.178;21.176;2023-08-08T10:40:06;100130.40;;;21.80
76898;BMP180;65856;52.178;21.176;2023-08-08T10:42:41;100128.20;;;21.68
76898;BMP180;65856;52.178;21.176;2023-08-08T10:45:12;100131.60;;;21.60
76898;BMP180;65856;52.178;21.176;2023-08-08T10:47:39;100137.60;;;21.60
76898;BMP180;65856;52.178;21.176;2023-08-08T10:52:38;100129.20;;;21.70
76898;BMP180;65856;52.178;21.176;2023-08-08T10:55:32;100129.60;;;21.92
76898;BMP180;65856;52.178;21.176;2023-08-08T11:00:31;100130.80;;;22.30
76898;BMP180;65856;52.178;21.176;2023-08-08T11:02:59;100136.80;;;22.30
76898;BMP180;65856;52.178;21.176;2023-08-08T11:05:28;100139.20;;;22.30
76898;BMP180;65856;52.178;21.176;2023-08-08T11:07:55;100138.20;;;22.18
76898;BMP180;65856;52.178;21.176;2023-08-08T11:10:22;100134.20;;;22.20
76898;BMP180;65856;52.178;21.176;2023-08-08T11:13:00;100136.80;;;22.20
76898;BMP180;65856;52.178;21.176;2023-08-08T11:15:28;100144.60;;;22.10
76898;BMP180;65856;52.178;21.176;2023-08-08T11:17:56;100148.20;;;22.00
76898;BMP180;65856;52.178;21.176;2023-08-08T11:20:29;100142.20;;;21.90
76898;BMP180;65856;52.178;21.176;2023-08-08T11:22:57;100142.00;;;21.90
76898;BMP180;65856;52.178;21.176;2023-08-08T11:25:26;100137.00;;;22.00
76898;BMP180;65856;52.178;21.176;2023-08-08T11:27:55;100148.20;;;21.90
76898;BMP180;65856;52.178;21.176;2023-08-08T11:30:22;100149.80;;;21.80
76898;BMP180;65856;52.178;21.176;2023-08-08T11:32:50;100146.40;;;21.80
76898;BMP180;65856;52.178;21.176;2023-08-08T11:35:23;100144.60;;;21.70
76898;BMP180;65856;52.178;21.176;2023-08-08T11:37:54;100141.40;;;21.60
76898;BMP180;65856;52.178;21.176;2023-08-08T11:40:25;100149.00;;;21.74
76898;BMP180;65856;52.178;21.176;2023-08-08T11:42:52;100146.80;;;21.90
76898;BMP180;65856;52.178;21.176;2023-08-08T11:45:18;100149.40;;;22.00
76898;BMP180;65856;52.178;21.176;2023-08-08T11:47:49;100141.80;;;22.20
76898;BMP180;65856;52.178;21.176;2023-08-08T11:50:19;100148.40;;;22.32
76898;BMP180;65856;52.178;21.176;2023-08-08T11:52:46;100151.40;;;22.30
76898;BMP180;65856;52.178;21.176;2023-08-08T11:55:13;100149.40;;;22.30
76898;BMP180;65856;52.178;21.176;2023-08-08T11:57:40;100155.80;;;22.30
76898;BMP180;65856;52.178;21.176;2023-08-08T12:00:08;100161.00;;;22.30
76898;BMP180;65856;52.178;21.176;2023-08-08T12:02:42;100162.40;;;22.30
76898;BMP180;65856;52.178;21.176;2023-08-08T12:05:10;100160.20;;;22.40
76898;BMP180;65856;52.178;21.176;2023-08-08T12:07:39;100158.00;;;22.50
76898;BMP180;65856;52.178;21.176;2023-08-08T12:10:23;100162.40;;;22.60
76898;BMP180;65856;52.178;21.176;2023-08-08T12:12:57;100166.40;;;22.60
76898;BMP180;65856;52.178;21.176;2023-08-08T12:15:43;100164.00;;;22.60
76898;BMP180;65856;52.178;21.176;2023-08-08T12:18:08;100176.80;;;22.60
76898;BMP180;65856;52.178;21.176;2023-08-08T12:20:34;100176.60;;;22.60
76898;BMP180;65856;52.178;21.176;2023-08-08T12:23:00;100162.60;;;22.56
76898;BMP180;65856;52.178;21.176;2023-08-08T12:25:25;100164.80;;;22.50
76898;BMP180;65856;52.178;21.176;2023-08-08T12:27:51;100169.40;;;22.50
76898;BMP180;65856;52.178;21.176;2023-08-08T12:30:17;100171.60;;;22.50
76898;BMP180;65856;52.178;21.176;2023-08-08T12:32:42;100163.00;;;22.50
76898;BMP180;65856;52.178;21.176;2023-08-08T12:35:08;100163.20;;;22.50
76898;BMP180;65856;52.178;21.176;2023-08-08T12:37:33;100161.40;;;22.50
76898;BMP180;65856;52.178;21.176;2023-08-08T12:39:59;100162.80;;;22.50
76898;BMP180;65856;52.178;21.176;2023-08-08T12:42:25;100163.80;;;22.50
76898;BMP180;65856;52.178;21.176;2023-08-08T12:44:50;100163.40;;;22.50
76898;BMP180;65856;52.178;21.176;2023-08-08T12:47:19;100166.20;;;22.50
76898;BMP180;65856;52.178;21.176;2023-08-08T12:49:46;100170.40;;;22.40
76898;BMP180;65856;52.178;21.176;2023-08-08T12:52:12;100175.00;;;22.40
76898;BMP180;65856;52.178;21.176;2023-08-08T12:54:37;100182.60;;;22.30
76898;BMP180;65856;52.178;21.176;2023-08-08T12:57:03;100179.60;;;22.20
76898;BMP180;65856;52.178;21.176;2023-08-08T12:59:29;100176.20;;;22.10
76898;BMP180;65856;52.178;21.176;2023-08-08T13:01:55;100177.80;;;22.10
76898;BMP180;65856;52.178;21.176;2023-08-08T13:04:21;100174.60;;;22.00
76898;BMP180;65856;52.178;21.176;2023-08-08T13:06:48;100173.60;;;22.00
76898;BMP180;65856;52.178;21.176;2023-08-08T13:09:14;100165.60;;;22.10
76898;BMP180;65856;52.178;21.176;2023-08-08T13:11:41;100169.00;;;22.10
76898;BMP180;65856;52.178;21.176;2023-08-08T13:14:07;100165.20;;;22.10
76898;BMP180;65856;52.178;21.176;2023-08-08T13:16:33;100169.80;;;22.10
76898;BMP180;65856;52.178;21.176;2023-08-08T13:18:58;100173.40;;;22.10
76898;BMP180;65856;52.178;21.176;2023-08-08T13:21:24;100180.00;;;22.10
76898;BMP180;65856;52.178;21.176;2023-08-08T13:23:49;100174.00;;;22.10
76898;BMP180;65856;52.178;21.176;2023-08-08T13:26:15;100178.20;;;22.00
76898;BMP180;65856;52.178;21.176;2023-08-08T13:28:40;100176.80;;;22.10
76898;BMP180;65856;52.178;21.176;2023-08-08T13:31:06;100168.60;;;22.10
76898;BMP180;65856;52.178;21.176;2023-08-08T13:33:33;100173.40;;;22.10
76898;BMP180;65856;52.178;21.176;2023-08-08T13:35:59;100168.40;;;22.10
76898;BMP180;65856;52.178;21.176;2023-08-08T13:38:25;100168.60;;;22.10
76898;BMP180;65856;52.178;21.176;2023-08-08T13:40:51;100173.40;;;22.04
76898;BMP180;65856;52.178;21.176;2023-08-08T13:43:17;100175.60;;;22.00
76898;BMP180;65856;52.178;21.176;2023-08-08T13:45:42;100176.80;;;22.00
76898;BMP180;65856;52.178;21.176;2023-08-08T13:48:08;100182.80;;;21.90
76898;BMP180;65856;52.178;21.176;2023-08-08T13:50:33;100191.80;;;21.80
76898;BMP180;65856;52.178;21.176;2023-08-08T13:52:59;100191.40;;;21.70